Kennydale, Washington
Current Conditions -  °F | °C
As of 6:53 AM on Monday 24 Nov 2014 (Local Time) from KRNT Reporting Station
Scattered Clouds Scattered Clouds  
Wind Chill: 35°   Ceiling: Unl
Heat Index: 39°   Visibility: 10mi
Dew Point: 37°   Wind: 6mph
Humidity: 93%   Direction: 150°SSE
Pressure: 30.35"   Gusts: NA
Location:  47.5152°N, 122.184°W
Report Text: KRNT 241453Z AUTO 15005KT 10SM SCT033 04/03 A3035 RMK AO2 SLP282 T00390028 55003
Loading
Personal Weather Stations






























Interactive Weather Map New forecast layout! Learn more

10-Day Weather Forecast

Advertisements
Track Severe Weather on mobile